createdAt,value
2023-04-09T00:02:01.506Z,102020.66
2023-04-09T00:04:27.994Z,102025.09
2023-04-09T00:06:54.408Z,102025.09
2023-04-09T00:09:20.897Z,102026.00
2023-04-09T00:11:47.300Z,102028.63
2023-04-09T00:14:13.696Z,102026.06
2023-04-09T00:16:40.806Z,102028.78
2023-04-09T00:19:07.675Z,102023.63
2023-04-09T00:21:34.094Z,102016.78
2023-04-09T00:24:00.660Z,102021.22
2023-04-09T00:26:27.333Z,102011.91
2023-04-09T00:28:53.874Z,102019.97
2023-04-09T00:31:21.004Z,102008.84
2023-04-09T00:33:47.529Z,102021.41
2023-04-09T00:36:14.054Z,102021.72
2023-04-09T00:38:40.824Z,102021.97
2023-04-09T00:41:07.351Z,102008.53
2023-04-09T00:43:33.804Z,102018.09
2023-04-09T00:46:00.885Z,102016.41
2023-04-09T00:48:27.744Z,102015.59
2023-04-09T00:50:54.220Z,102012.25
2023-04-09T00:53:20.673Z,102020.09
2023-04-09T00:55:47.214Z,102020.19
2023-04-09T00:58:14.482Z,102015.19
2023-04-09T01:00:40.954Z,102016.22
2023-04-09T01:03:08.396Z,102023.28
2023-04-09T01:05:54.962Z,102025.31
2023-04-09T01:08:55.983Z,102019.53
2023-04-09T01:11:36.003Z,102013.81
2023-04-09T01:14:14.609Z,102016.59
2023-04-09T01:16:44.720Z,102013.28
2023-04-09T01:19:34.510Z,102003.81
2023-04-09T01:22:02.750Z,102010.81
2023-04-09T01:25:09.894Z,102015.13
2023-04-09T01:28:24.029Z,102009.16
2023-04-09T01:30:57.394Z,102010.03
2023-04-09T01:33:27.363Z,102014.44
2023-04-09T01:35:54.832Z,102005.94
2023-04-09T01:38:22.208Z,102013.66
2023-04-09T01:40:52.020Z,102016.28
2023-04-09T01:43:20.059Z,102011.94
2023-04-09T01:45:47.795Z,102015.34
2023-04-09T01:48:16.052Z,102004.25
2023-04-09T01:50:43.688Z,102001.19
2023-04-09T01:53:10.446Z,102004.03
2023-04-09T01:55:36.856Z,102002.59
2023-04-09T01:58:03.452Z,102002.91
2023-04-09T02:00:38.325Z,101999.47
2023-04-09T02:03:13.382Z,102002.09
2023-04-09T02:05:46.491Z,102009.28
2023-04-09T02:08:20.537Z,101994.03
2023-04-09T02:10:56.609Z,102000.13
2023-04-09T02:13:24.355Z,101988.94
2023-04-09T02:15:51.692Z,102002.78
2023-04-09T02:18:29.139Z,101988.06
2023-04-09T02:20:57.296Z,101984.56
2023-04-09T02:23:24.555Z,101985.34
2023-04-09T02:25:52.537Z,101987.06
2023-04-09T02:28:19.223Z,101991.44
2023-04-09T02:30:45.686Z,101993.97
2023-04-09T02:33:12.120Z,101988.13
2023-04-09T02:35:38.660Z,101992.72
2023-04-09T02:38:05.219Z,101990.19
2023-04-09T02:40:31.725Z,101983.44
2023-04-09T02:42:58.521Z,101980.91
2023-04-09T02:45:25.164Z,101975.84
2023-04-09T02:47:51.656Z,101974.25
2023-04-09T02:50:18.141Z,101978.66
2023-04-09T02:52:46.568Z,101965.19
2023-04-09T02:55:13.952Z,101974.91
2023-04-09T02:57:40.928Z,101978.44
2023-04-09T03:00:08.260Z,101982.84
2023-04-09T03:02:35.288Z,101970.72
2023-04-09T03:05:02.311Z,101972.59
2023-04-09T03:07:28.760Z,101976.16
2023-04-09T03:09:55.225Z,101969.28
2023-04-09T03:12:21.634Z,101970.47
2023-04-09T03:14:48.027Z,101958.63
2023-04-09T03:17:14.412Z,101963.06
2023-04-09T03:19:40.908Z,101969.84
2023-04-09T03:22:07.427Z,101965.50
2023-04-09T03:24:33.940Z,101951.97
2023-04-09T03:27:00.354Z,101960.44
2023-04-09T03:29:26.775Z,101957.16
2023-04-09T03:31:53.190Z,101956.44
2023-04-09T03:34:19.689Z,101960.06
2023-04-09T03:36:46.313Z,101924.47
2023-04-09T03:39:12.744Z,101950.94
2023-04-09T03:41:39.335Z,101949.47
2023-04-09T03:44:06.065Z,101945.94
2023-04-09T03:46:32.564Z,101948.66
2023-04-09T03:48:59.055Z,101949.53
2023-04-09T03:51:25.505Z,101945.47
2023-04-09T03:53:51.946Z,101958.47
2023-04-09T03:56:18.408Z,101953.28
2023-04-09T03:58:44.881Z,101945.03
2023-04-09T04:01:11.305Z,101963.03
2023-04-09T04:03:37.865Z,101947.59
2023-04-09T04:06:04.440Z,101947.66
2023-04-09T04:08:30.861Z,101958.28
2023-04-09T04:11:03.616Z,101953.31
2023-04-09T04:13:30.242Z,101948.28
2023-04-09T04:15:56.792Z,101957.19
2023-04-09T04:18:23.242Z,101947.09
2023-04-09T04:20:49.661Z,101939.00
2023-04-09T04:23:16.103Z,101958.72
2023-04-09T04:25:42.656Z,101954.69
2023-04-09T04:28:09.207Z,101954.09
2023-04-09T04:30:35.734Z,101954.16
2023-04-09T04:33:02.225Z,101955.34
2023-04-09T04:35:28.697Z,101952.88
2023-04-09T04:37:55.150Z,101963.31
2023-04-09T04:40:21.572Z,101966.03
2023-04-09T04:42:47.996Z,101963.59
2023-04-09T04:45:14.500Z,101963.78
2023-04-09T04:47:40.984Z,101971.63
2023-04-09T04:50:08.197Z,101961.63
2023-04-09T04:52:34.641Z,101958.94
2023-04-09T04:55:01.066Z,101969.25
2023-04-09T04:57:27.488Z,101970.19
2023-04-09T04:59:53.992Z,101971.91
2023-04-09T05:02:20.708Z,101976.25
2023-04-09T05:04:47.189Z,101965.28
2023-04-09T05:07:13.632Z,101961.84
2023-04-09T05:09:40.151Z,101964.47
2023-04-09T05:12:06.596Z,101967.94
2023-04-09T05:14:33.066Z,101964.59
2023-04-09T05:16:59.602Z,101962.88
2023-04-09T05:19:26.122Z,101963.00
2023-04-09T05:21:52.644Z,101969.06
2023-04-09T05:24:19.076Z,101963.03
2023-04-09T05:26:45.526Z,101963.91
2023-04-09T05:29:11.978Z,101961.22
2023-04-09T05:31:40.149Z,101958.63
2023-04-09T05:34:06.639Z,101973.25
2023-04-09T05:36:33.249Z,101967.94
2023-04-09T05:38:59.730Z,101955.69
2023-04-09T05:41:26.156Z,101963.97
2023-04-09T05:43:52.892Z,101965.53
2023-04-09T05:46:19.680Z,101967.97
2023-04-09T05:48:46.866Z,101941.31
2023-04-09T05:51:13.372Z,101968.00
2023-04-09T05:53:39.832Z,101968.00
2023-04-09T05:56:16.167Z,101961.72
2023-04-09T05:58:43.016Z,101961.38
2023-04-09T06:01:10.193Z,101957.72
2023-04-09T06:03:36.917Z,101961.03
2023-04-09T06:06:03.680Z,101965.50
2023-04-09T06:08:30.159Z,101956.00
2023-04-09T06:10:56.743Z,101968.00
2023-04-09T06:13:23.582Z,101967.97
2023-04-09T06:15:50.369Z,101962.09
2023-04-09T06:18:17.137Z,101964.63
2023-04-09T06:20:43.599Z,101971.81
2023-04-09T06:23:10.207Z,101966.94
2023-04-09T06:25:36.719Z,101958.06
2023-04-09T06:28:05.268Z,101965.44
2023-04-09T06:30:32.014Z,101971.13
2023-04-09T06:32:58.527Z,101976.88
2023-04-09T06:35:25.002Z,101966.53
2023-04-09T06:37:51.499Z,101972.19
2023-04-09T06:40:19.224Z,101971.34
2023-04-09T06:42:47.128Z,101981.13
2023-04-09T06:45:13.734Z,101992.44
2023-04-09T06:47:40.172Z,101986.25
2023-04-09T06:50:07.256Z,101990.88
2023-04-09T06:52:33.736Z,101987.69
2023-04-09T06:55:00.313Z,101990.41
2023-04-09T06:57:27.224Z,101987.31
2023-04-09T06:59:53.683Z,101990.38
2023-04-09T07:02:20.556Z,101988.25
2023-04-09T07:04:47.715Z,101990.16
2023-04-09T07:07:14.446Z,101991.19
2023-04-09T07:09:40.941Z,101986.44
2023-04-09T07:12:07.348Z,101982.97
2023-04-09T07:14:33.812Z,101978.16
2023-04-09T07:17:00.284Z,101985.03
2023-04-09T07:19:26.727Z,101994.78
2023-04-09T07:21:53.147Z,101991.09
2023-04-09T07:24:19.610Z,101982.50
2023-04-09T07:26:46.098Z,101988.97
2023-04-09T07:29:12.523Z,101992.59
2023-04-09T07:31:39.396Z,101997.63
2023-04-09T07:34:06.136Z,101986.47
2023-04-09T07:36:32.814Z,101996.88
2023-04-09T07:38:59.271Z,101983.63
2023-04-09T07:41:25.964Z,101988.00
2023-04-09T07:43:52.552Z,101992.56
2023-04-09T07:46:21.313Z,102002.63
2023-04-09T07:48:49.421Z,101990.00
2023-04-09T07:51:17.051Z,102000.75
2023-04-09T07:53:43.504Z,102000.25
2023-04-09T07:56:10.395Z,101999.03
2023-04-09T07:58:38.102Z,102007.38
2023-04-09T08:01:04.879Z,102002.91
2023-04-09T08:03:31.546Z,102005.94
2023-04-09T08:05:58.242Z,101997.72
2023-04-09T08:08:25.033Z,102003.53
2023-04-09T08:10:51.575Z,102002.88
2023-04-09T08:13:18.032Z,101999.19
2023-04-09T08:15:44.434Z,101988.66
2023-04-09T08:18:10.851Z,102002.00
2023-04-09T08:20:37.823Z,101995.41
2023-04-09T08:23:04.263Z,102007.03
2023-04-09T08:25:30.902Z,102004.50
2023-04-09T08:27:58.121Z,102002.50
2023-04-09T08:30:24.638Z,102011.06
2023-04-09T08:32:51.223Z,102006.56
2023-04-09T08:35:17.722Z,101987.16
2023-04-09T08:37:44.244Z,101997.97
2023-04-09T08:40:11.807Z,102000.94
2023-04-09T08:42:45.944Z,102001.38
2023-04-09T08:45:13.995Z,102012.25
2023-04-09T08:47:42.111Z,102017.59
2023-04-09T08:50:09.010Z,102006.91
2023-04-09T08:52:36.782Z,102011.59
2023-04-09T08:55:03.450Z,102010.56
2023-04-09T08:57:29.950Z,102009.47
2023-04-09T08:59:56.429Z,102014.91
2023-04-09T09:02:24.179Z,102001.25
2023-04-09T09:04:50.924Z,101986.66
2023-04-09T09:07:17.752Z,101988.06
2023-04-09T09:09:54.554Z,101989.03
2023-04-09T09:12:41.555Z,101995.47
2023-04-09T09:15:30.031Z,101992.34
2023-04-09T09:17:58.413Z,101988.88
2023-04-09T09:20:26.569Z,101977.13
2023-04-09T09:22:55.646Z,101973.72
2023-04-09T09:25:26.393Z,101971.50
2023-04-09T09:27:53.968Z,101970.97
2023-04-09T09:30:23.153Z,101972.09
2023-04-09T09:33:10.791Z,101981.78
2023-04-09T09:35:50.830Z,101973.28
2023-04-09T09:38:18.248Z,101969.56
2023-04-09T09:40:44.967Z,101948.97
2023-04-09T09:43:14.461Z,101963.16
2023-04-09T09:45:43.108Z,101970.97
2023-04-09T09:48:12.059Z,101967.19
2023-04-09T09:50:41.765Z,101963.31
2023-04-09T09:53:10.038Z,101947.22
2023-04-09T09:55:41.723Z,101962.97
2023-04-09T09:58:23.528Z,101969.50
2023-04-09T10:00:52.211Z,101962.97
2023-04-09T10:03:25.879Z,101956.41
2023-04-09T10:05:53.847Z,101950.59
2023-04-09T10:08:22.289Z,101957.88
2023-04-09T10:10:50.183Z,101949.28
2023-04-09T10:13:21.819Z,101932.63
2023-04-09T10:15:48.913Z,101942.41
2023-04-09T10:18:17.875Z,101938.34
2023-04-09T10:20:58.642Z,101946.72
2023-04-09T10:23:36.254Z,101934.22
2023-04-09T10:26:03.037Z,101943.16
2023-04-09T10:28:30.029Z,101939.63
2023-04-09T10:30:57.553Z,101935.59
2023-04-09T10:33:27.076Z,101937.41
2023-04-09T10:35:55.327Z,101940.47
2023-04-09T10:38:39.050Z,101932.81
2023-04-09T10:41:16.539Z,101930.16
2023-04-09T10:43:43.401Z,101933.75
2023-04-09T10:46:30.091Z,101939.75
2023-04-09T10:49:10.384Z,101923.94
2023-04-09T10:51:40.290Z,101929.28
2023-04-09T10:54:27.386Z,101925.69
2023-04-09T10:57:09.221Z,101927.41
2023-04-09T10:59:46.083Z,101928.59
2023-04-09T11:02:21.577Z,101919.09
2023-04-09T11:04:54.674Z,101917.63
2023-04-09T11:07:25.044Z,101922.53
2023-04-09T11:09:51.477Z,101923.84
2023-04-09T11:12:17.939Z,101911.75
2023-04-09T11:14:44.370Z,101914.38
2023-04-09T11:17:10.858Z,101908.38
2023-04-09T11:19:37.391Z,101905.38
2023-04-09T11:22:06.568Z,101903.75
2023-04-09T11:24:42.570Z,101903.78
2023-04-09T11:27:09.163Z,101898.22
2023-04-09T11:29:36.699Z,101901.19
2023-04-09T11:32:05.191Z,101877.16
2023-04-09T11:34:32.409Z,101892.00
2023-04-09T11:36:59.866Z,101881.53
2023-04-09T11:39:26.448Z,101891.50
2023-04-09T11:41:53.297Z,101886.03
2023-04-09T11:44:21.678Z,101881.06
2023-04-09T11:46:49.177Z,101869.53
2023-04-09T11:49:16.436Z,101879.50
2023-04-09T11:51:43.135Z,101881.03
2023-04-09T11:54:12.216Z,101873.59
2023-04-09T11:56:38.660Z,101881.19
2023-04-09T11:59:05.542Z,101876.09
2023-04-09T12:01:33.372Z,101878.72
2023-04-09T12:04:01.278Z,101873.28
2023-04-09T12:06:28.523Z,101878.47
2023-04-09T12:08:58.532Z,101878.38
2023-04-09T12:11:32.508Z,101871.59
2023-04-09T12:14:01.202Z,101862.91
2023-04-09T12:16:34.262Z,101853.63
2023-04-09T12:19:07.951Z,101862.25
2023-04-09T12:21:55.825Z,101863.34
2023-04-09T12:24:26.079Z,101858.59
2023-04-09T12:26:52.718Z,101866.00
2023-04-09T12:29:21.181Z,101868.09
2023-04-09T12:31:47.960Z,101872.03
2023-04-09T12:34:14.488Z,101871.41
2023-04-09T12:36:41.850Z,101879.31
2023-04-09T12:39:11.114Z,101879.78
2023-04-09T12:41:37.657Z,101870.53
2023-04-09T12:44:05.083Z,101875.72
2023-04-09T12:46:32.429Z,101858.44
2023-04-09T12:48:59.145Z,101864.66
2023-04-09T12:51:25.820Z,101864.22
2023-04-09T12:53:52.548Z,101861.72
2023-04-09T12:56:19.270Z,101866.63
2023-04-09T12:58:45.697Z,101852.66
2023-04-09T13:01:12.185Z,101851.13
2023-04-09T13:03:41.307Z,101863.03
2023-04-09T13:06:08.745Z,101860.19
2023-04-09T13:08:35.222Z,101852.91
2023-04-09T13:11:01.862Z,101858.75
2023-04-09T13:13:28.685Z,101855.75
2023-04-09T13:15:55.180Z,101848.50
2023-04-09T13:18:21.593Z,101857.50
2023-04-09T13:20:48.036Z,101837.09
2023-04-09T13:23:14.476Z,101844.28
2023-04-09T13:25:40.926Z,101844.53
2023-04-09T13:28:07.401Z,101846.59
2023-04-09T13:30:33.986Z,101845.91
2023-04-09T13:33:00.715Z,101829.84
2023-04-09T13:35:27.246Z,101846.06
2023-04-09T13:37:53.819Z,101840.03
2023-04-09T13:40:20.241Z,101823.03
2023-04-09T13:42:46.782Z,101840.41
2023-04-09T13:45:13.295Z,101832.28
2023-04-09T13:47:39.728Z,101837.56
2023-04-09T13:50:07.435Z,101835.81
2023-04-09T13:52:33.885Z,101825.91
2023-04-09T13:55:00.584Z,101821.69
2023-04-09T13:57:27.355Z,101824.25
2023-04-09T13:59:53.788Z,101816.63
2023-04-09T14:02:20.658Z,101810.69
2023-04-09T14:04:47.278Z,101800.41
2023-04-09T14:07:13.778Z,101800.69
2023-04-09T14:09:40.534Z,101806.28
2023-04-09T14:12:07.019Z,101802.78
2023-04-09T14:14:33.465Z,101792.63
2023-04-09T14:16:59.949Z,101794.28
2023-04-09T14:19:26.364Z,101798.75
2023-04-09T14:21:53.867Z,101788.44
2023-04-09T14:24:22.960Z,101788.97
2023-04-09T14:26:51.431Z,101780.91
2023-04-09T14:29:17.870Z,101790.16
2023-04-09T14:31:44.411Z,101790.66
2023-04-09T14:34:10.955Z,101778.88
2023-04-09T14:36:37.451Z,101786.72
2023-04-09T14:39:03.964Z,101787.47
2023-04-09T14:41:30.443Z,101779.44
2023-04-09T14:43:56.901Z,101783.50
2023-04-09T14:46:23.392Z,101781.97
2023-04-09T14:48:49.981Z,101788.66
2023-04-09T14:51:16.608Z,101781.25
2023-04-09T14:53:43.084Z,101778.88
2023-04-09T14:56:09.518Z,101781.19
2023-04-09T14:58:36.312Z,101777.44
2023-04-09T15:01:04.278Z,101778.63
2023-04-09T15:03:30.889Z,101779.25
2023-04-09T15:05:59.320Z,101784.22
2023-04-09T15:08:25.907Z,101777.59
2023-04-09T15:10:52.380Z,101765.88
2023-04-09T15:13:18.847Z,101770.84
2023-04-09T15:15:45.424Z,101760.81
2023-04-09T15:18:11.930Z,101765.97
2023-04-09T15:20:39.835Z,101777.38
2023-04-09T15:23:06.283Z,101769.88
2023-04-09T15:25:32.825Z,101762.84
2023-04-09T15:27:59.269Z,101762.34
2023-04-09T15:30:26.496Z,101751.78
2023-04-09T15:32:53.076Z,101752.28
2023-04-09T15:35:24.897Z,101748.22
2023-04-09T15:37:51.691Z,101755.78
2023-04-09T15:40:18.687Z,101753.81
2023-04-09T15:42:45.234Z,101756.00
2023-04-09T15:45:14.662Z,101762.13
2023-04-09T15:47:41.143Z,101752.53
2023-04-09T15:50:08.180Z,101764.56
2023-04-09T15:52:34.643Z,101759.81
2023-04-09T15:55:01.722Z,101761.25
2023-04-09T15:57:28.791Z,101771.22
2023-04-09T15:59:55.358Z,101764.78
2023-04-09T16:02:23.438Z,101757.22
2023-04-09T16:04:51.283Z,101763.03
2023-04-09T16:07:17.773Z,101757.38
2023-04-09T16:09:46.199Z,101735.91
2023-04-09T16:12:12.844Z,101749.09
2023-04-09T16:14:40.320Z,101744.97
2023-04-09T16:17:07.042Z,101749.66
2023-04-09T16:19:33.595Z,101741.50
2023-04-09T16:22:00.052Z,101734.88
2023-04-09T16:24:27.104Z,101717.44
2023-04-09T16:26:53.580Z,101733.66
2023-04-09T16:29:20.284Z,101716.47
2023-04-09T16:31:46.799Z,101721.34
2023-04-09T16:34:13.283Z,101712.66
2023-04-09T16:36:41.525Z,101719.59
2023-04-09T16:39:07.965Z,101723.91
2023-04-09T16:41:36.814Z,101706.66
2023-04-09T16:44:03.847Z,101715.00
2023-04-09T16:46:30.705Z,101720.50
2023-04-09T16:48:57.370Z,101709.50
2023-04-09T16:51:23.988Z,101702.22
2023-04-09T16:53:50.520Z,101713.56
2023-04-09T16:56:17.005Z,101710.75
2023-04-09T16:58:43.878Z,101719.88
2023-04-09T17:01:10.670Z,101718.91
2023-04-09T17:03:37.508Z,101718.91
2023-04-09T17:06:04.738Z,101723.81
2023-04-09T17:08:31.267Z,101714.56
2023-04-09T17:11:02.398Z,101720.66
2023-04-09T17:13:31.564Z,101718.75
2023-04-09T17:15:58.703Z,101727.03
2023-04-09T17:18:25.222Z,101718.31
2023-04-09T17:20:52.127Z,101705.19
2023-04-09T17:23:18.964Z,101724.53
2023-04-09T17:25:46.120Z,101718.09
2023-04-09T17:28:12.898Z,101719.50
2023-04-09T17:30:39.357Z,101719.75
2023-04-09T17:33:05.968Z,101721.78
2023-04-09T17:35:33.355Z,101724.28
2023-04-09T17:38:01.213Z,101719.47
2023-04-09T17:40:28.227Z,101720.69
2023-04-09T17:42:55.559Z,101715.97
2023-04-09T17:45:22.124Z,101721.13
2023-04-09T17:47:51.705Z,101713.97
2023-04-09T17:50:18.396Z,101719.50
2023-04-09T17:52:45.162Z,101718.19
2023-04-09T17:55:12.967Z,101721.00
2023-04-09T17:57:40.089Z,101731.38
2023-04-09T18:00:08.218Z,101730.13
2023-04-09T18:02:35.554Z,101691.53
2023-04-09T18:05:06.274Z,101730.13
2023-04-09T18:07:35.896Z,101733.78
2023-04-09T18:10:03.367Z,101728.09
2023-04-09T18:12:30.140Z,101728.28
2023-04-09T18:14:56.712Z,101720.66
2023-04-09T18:17:23.564Z,101725.91
2023-04-09T18:19:50.397Z,101723.63
2023-04-09T18:22:16.895Z,101727.94
2023-04-09T18:24:43.353Z,101733.72
2023-04-09T18:27:09.985Z,101728.06
2023-04-09T18:29:36.712Z,101731.88
2023-04-09T18:32:03.540Z,101734.06
2023-04-09T18:34:30.079Z,101729.25
2023-04-09T18:36:57.424Z,101725.50
2023-04-09T18:39:24.393Z,101726.44
2023-04-09T18:41:51.241Z,101716.28
2023-04-09T18:44:17.799Z,101717.63
2023-04-09T18:46:44.464Z,101733.44
2023-04-09T18:49:11.172Z,101722.97
2023-04-09T18:51:37.703Z,101743.16
2023-04-09T18:54:04.930Z,101729.03
2023-04-09T18:56:37.377Z,101737.09
2023-04-09T18:59:03.845Z,101736.03
2023-04-09T19:01:30.726Z,101732.16
2023-04-09T19:03:57.353Z,101739.38
2023-04-09T19:06:25.468Z,101747.84
2023-04-09T19:08:57.873Z,101744.66
2023-04-09T19:11:25.925Z,101735.69
2023-04-09T19:13:52.567Z,101741.97
2023-04-09T19:16:20.287Z,101743.13
2023-04-09T19:18:47.051Z,101746.75
2023-04-09T19:21:13.922Z,101757.75
2023-04-09T19:23:40.398Z,101755.44
2023-04-09T19:26:15.483Z,101742.09
2023-04-09T19:28:41.921Z,101758.34
2023-04-09T19:31:08.511Z,101749.97
2023-04-09T19:33:35.372Z,101763.25
2023-04-09T19:36:01.846Z,101750.66
2023-04-09T19:38:28.267Z,101746.25
2023-04-09T19:40:54.707Z,101761.34
2023-04-09T19:43:21.147Z,101750.03
2023-04-09T19:45:47.578Z,101748.44
2023-04-09T19:48:14.176Z,101759.47
2023-04-09T19:50:41.181Z,101754.75
2023-04-09T19:53:07.749Z,101757.84
2023-04-09T19:55:34.944Z,101755.22
2023-04-09T19:58:01.857Z,101745.06
2023-04-09T20:00:28.888Z,101736.84
2023-04-09T20:02:55.898Z,101752.91
2023-04-09T20:05:22.921Z,101747.53
2023-04-09T20:07:50.578Z,101749.13
2023-04-09T20:10:17.227Z,101742.44
2023-04-09T20:12:47.413Z,101759.94
2023-04-09T20:15:14.281Z,101762.47
2023-04-09T20:17:41.840Z,101759.84
2023-04-09T20:20:08.797Z,101759.53
2023-04-09T20:22:35.578Z,101760.91
2023-04-09T20:25:02.127Z,101752.44
2023-04-09T20:27:28.671Z,101758.81
2023-04-09T20:29:55.332Z,101760.63
2023-04-09T20:32:22.587Z,101750.44
2023-04-09T20:34:49.546Z,101761.31
2023-04-09T20:37:16.198Z,101750.84
2023-04-09T20:39:42.710Z,101756.16
2023-04-09T20:42:09.204Z,101746.00
2023-04-09T20:44:35.696Z,101751.66
2023-04-09T20:47:02.205Z,101740.50
2023-04-09T20:49:28.930Z,101740.81
2023-04-09T20:51:55.709Z,101731.75
2023-04-09T20:54:23.142Z,101730.94
2023-04-09T20:56:50.022Z,101724.84
2023-04-09T20:59:17.156Z,101734.38
2023-04-09T21:01:44.130Z,101736.97
2023-04-09T21:04:11.022Z,101711.84
2023-04-09T21:06:37.542Z,101729.13
2023-04-09T21:09:04.141Z,101734.66
2023-04-09T21:11:30.790Z,101718.75
2023-04-09T21:13:57.803Z,101735.72
2023-04-09T21:16:26.071Z,101731.31
2023-04-09T21:18:53.010Z,101731.31
2023-04-09T21:21:19.705Z,101734.78
2023-04-09T21:23:46.174Z,101727.03
2023-04-09T21:26:13.165Z,101726.00
2023-04-09T21:28:39.593Z,101723.47
2023-04-09T21:31:06.256Z,101723.38
2023-04-09T21:33:32.793Z,101719.09
2023-04-09T21:35:59.314Z,101714.97
2023-04-09T21:38:25.995Z,101714.88
2023-04-09T21:40:52.472Z,101714.16
2023-04-09T21:43:18.904Z,101709.75
2023-04-09T21:45:45.445Z,101711.63
2023-04-09T21:48:12.359Z,101709.09
2023-04-09T21:50:38.799Z,101708.47
2023-04-09T21:53:05.583Z,101707.00
2023-04-09T21:55:32.083Z,101712.31
2023-04-09T21:57:58.552Z,101712.78
2023-04-09T22:00:24.957Z,101720.00
2023-04-09T22:02:51.690Z,101717.31
2023-04-09T22:05:18.367Z,101730.81
2023-04-09T22:07:45.165Z,101725.31
2023-04-09T22:10:11.629Z,101725.13
2023-04-09T22:12:38.095Z,101744.97
2023-04-09T22:15:05.761Z,101741.16
2023-04-09T22:17:32.288Z,101749.75
2023-04-09T22:19:58.734Z,101746.75
2023-04-09T22:22:25.389Z,101735.63
2023-04-09T22:24:51.972Z,101750.34
2023-04-09T22:27:18.491Z,101735.41
2023-04-09T22:29:44.943Z,101744.19
2023-04-09T22:32:11.373Z,101750.53
2023-04-09T22:34:37.862Z,101758.69
2023-04-09T22:37:04.288Z,101744.69
2023-04-09T22:39:31.084Z,101749.78
2023-04-09T22:41:58.413Z,101747.03
2023-04-09T22:44:25.628Z,101739.84
2023-04-09T22:46:52.259Z,101750.34
2023-04-09T22:49:18.792Z,101737.72
2023-04-09T22:51:46.297Z,101758.47
2023-04-09T22:54:12.759Z,101742.69
2023-04-09T22:56:39.646Z,101740.50
2023-04-09T22:59:06.303Z,101756.31
2023-04-09T23:01:32.874Z,101759.16
2023-04-09T23:03:59.317Z,101741.31
2023-04-09T23:06:25.795Z,101748.31
2023-04-09T23:08:52.454Z,101743.09
2023-04-09T23:11:19.269Z,101735.13
2023-04-09T23:13:45.825Z,101750.28
2023-04-09T23:16:13.113Z,101751.28
2023-04-09T23:18:40.420Z,101750.59
2023-04-09T23:21:08.402Z,101749.91
2023-04-09T23:23:36.038Z,101744.56
2023-04-09T23:26:03.215Z,101747.22
2023-04-09T23:28:30.203Z,101747.72
2023-04-09T23:30:56.834Z,101746.72
2023-04-09T23:33:23.746Z,101732.66
2023-04-09T23:35:50.778Z,101720.97
2023-04-09T23:38:17.287Z,101737.41
2023-04-09T23:40:43.705Z,101728.91
2023-04-09T23:43:10.225Z,101732.53
2023-04-09T23:45:36.828Z,101732.78
2023-04-09T23:48:05.069Z,101736.38
2023-04-09T23:50:31.626Z,101739.91
2023-04-09T23:53:00.898Z,101740.97
2023-04-09T23:55:27.841Z,101730.97
2023-04-09T23:57:54.367Z,101727.72
